Time;durP1;ratioP1;P1;durP2;ratioP2;P2;SDS_P1;SDS_P2;PMS_P1;PMS_P2;Temp;Humidity;BMP_temperature;BMP_pressure;BME280_temperature;BME280_humidity;BME280_pressure;Samples;Min_cycle;Max_cycle;Signal;HPM_P1;HPM_P2
2022/04/17 00:01:28;;;;;;;;;;;18.00;57.90;;;;;;5023012;28;20530;-54
2022/04/17 00:03:54;;;;;;;;;;;17.90;57.80;;;;;;5021301;28;19913;-54
2022/04/17 00:06:19;;;;;;;;;;;18.00;57.80;;;;;;5024422;28;19917;-56
2022/04/17 00:08:44;;;;;;;;;;;17.90;57.80;;;;;;5022227;28;23124;-54
2022/04/17 00:11:10;;;;;;;;;;;17.90;57.80;;;;;;5024434;28;19914;-53
2022/04/17 00:13:36;;;;;;;;;;;17.90;57.80;;;;;;5037714;28;20401;-54
2022/04/17 00:16:01;;;;;;;;;;;17.90;57.70;;;;;;5023945;28;19924;-51
2022/04/17 00:18:27;;;;;;;;;;;17.90;57.70;;;;;;5018989;28;19917;-53
2022/04/17 00:20:52;;;;;;;;;;;17.90;57.70;;;;;;5023557;28;19913;-55
2022/04/17 00:23:18;;;;;;;;;;;17.90;57.70;;;;;;5017767;28;19913;-51
2022/04/17 00:25:43;;;;;;;;;;;17.90;57.70;;;;;;5021249;28;19962;-52
2022/04/17 00:28:10;;;;;;;;;;;18.00;57.80;;;;;;5021136;28;20416;-54
2022/04/17 00:30:35;;;;;;;;;;;17.90;57.70;;;;;;5024230;28;19913;-51
2022/04/17 00:33:01;;;;;;;;;;;17.90;57.70;;;;;;5023888;28;19978;-54
2022/04/17 00:35:26;;;;;;;;;;;17.90;57.70;;;;;;5024123;28;19925;-54
2022/04/17 00:37:52;;;;;;;;;;;17.90;57.60;;;;;;5022387;28;19920;-52
2022/04/17 00:40:17;;;;;;;;;;;17.90;57.60;;;;;;5024353;28;19913;-51
2022/04/17 00:42:43;;;;;;;;;;;17.90;57.70;;;;;;5021358;28;20053;-54
2022/04/17 00:45:09;;;;;;;;;;;17.90;57.60;;;;;;5024260;28;19913;-55
2022/04/17 00:47:35;;;;;;;;;;;17.90;57.60;;;;;;5014837;28;19920;-55
2022/04/17 00:50:00;;;;;;;;;;;17.90;57.60;;;;;;5022011;28;19921;-54
2022/04/17 00:52:26;;;;;;;;;;;17.90;57.60;;;;;;5039071;28;19917;-53
2022/04/17 00:54:52;;;;;;;;;;;17.90;57.60;;;;;;5024555;28;19913;-52
2022/04/17 00:57:17;;;;;;;;;;;17.90;57.60;;;;;;5040310;28;19918;-52
2022/04/17 00:59:43;;;;;;;;;;;17.90;57.60;;;;;;5023274;28;19913;-53
2022/04/17 01:02:09;;;;;;;;;;;17.90;57.60;;;;;;5023536;28;19920;-53
2022/04/17 01:04:35;;;;;;;;;;;17.90;57.60;;;;;;5022584;28;20415;-53
2022/04/17 01:07:02;;;;;;;;;;;17.90;57.50;;;;;;5024769;28;19992;-52
2022/04/17 01:09:27;;;;;;;;;;;17.90;57.50;;;;;;5022404;28;19921;-52
2022/04/17 01:11:53;;;;;;;;;;;17.90;57.50;;;;;;5039643;28;19920;-52
2022/04/17 01:14:20;;;;;;;;;;;17.90;57.50;;;;;;5038240;28;20389;-52
2022/04/17 01:16:46;;;;;;;;;;;17.90;57.50;;;;;;5022826;28;19913;-55
2022/04/17 01:19:12;;;;;;;;;;;17.90;57.50;;;;;;5022870;28;19917;-54
2022/04/17 01:21:38;;;;;;;;;;;17.80;57.50;;;;;;5023621;28;19921;-54
2022/04/17 01:26:56;;;;;;;;;;;17.80;57.40;;;;;;5012535;28;19920;-52
2022/04/17 01:29:26;;;;;;;;;;;17.80;57.40;;;;;;5034858;28;19920;-52
2022/04/17 01:31:52;;;;;;;;;;;17.80;57.40;;;;;;5024396;28;20292;-53
2022/04/17 01:34:18;;;;;;;;;;;17.80;57.40;;;;;;5023558;28;19947;-54
2022/04/17 01:36:44;;;;;;;;;;;17.80;57.40;;;;;;5023760;28;20424;-54
2022/04/17 01:39:09;;;;;;;;;;;17.80;57.40;;;;;;5025691;28;19921;-55
2022/04/17 01:41:35;;;;;;;;;;;17.80;57.30;;;;;;5028409;28;19920;-51
2022/04/17 01:44:00;;;;;;;;;;;17.80;57.30;;;;;;5024310;28;20396;-56
2022/04/17 01:46:25;;;;;;;;;;;17.80;57.30;;;;;;5028047;28;19939;-56
2022/04/17 01:48:51;;;;;;;;;;;17.80;57.30;;;;;;5025492;28;19967;-53
2022/04/17 01:51:16;;;;;;;;;;;17.80;57.30;;;;;;5026082;28;19913;-51
2022/04/17 01:53:42;;;;;;;;;;;17.80;57.30;;;;;;5027096;28;20381;-53
2022/04/17 01:56:07;;;;;;;;;;;17.80;57.30;;;;;;5028242;28;20028;-55
2022/04/17 01:58:33;;;;;;;;;;;17.80;57.30;;;;;;5026068;28;19914;-54
2022/04/17 02:00:58;;;;;;;;;;;17.80;57.30;;;;;;5026698;28;19917;-52
2022/04/17 02:03:24;;;;;;;;;;;17.80;57.30;;;;;;5024308;28;20654;-54
2022/04/17 02:05:49;;;;;;;;;;;17.80;57.30;;;;;;5028136;28;20088;-52
2022/04/17 02:08:16;;;;;;;;;;;17.80;57.20;;;;;;5025469;28;19923;-52
2022/04/17 02:10:42;;;;;;;;;;;17.80;57.20;;;;;;5027282;28;19913;-52
2022/04/17 02:13:07;;;;;;;;;;;17.80;57.20;;;;;;5026824;28;19925;-54
2022/04/17 02:15:33;;;;;;;;;;;17.80;57.20;;;;;;5026811;28;19917;-56
2022/04/17 02:17:58;;;;;;;;;;;17.70;57.10;;;;;;5026553;28;19920;-56
2022/04/17 02:20:24;;;;;;;;;;;17.80;57.20;;;;;;5027091;28;19917;-56
2022/04/17 02:22:49;;;;;;;;;;;17.70;57.20;;;;;;5027445;28;20281;-54
2022/04/17 02:25:14;;;;;;;;;;;17.70;57.10;;;;;;5027177;28;19920;-56
2022/04/17 02:27:40;;;;;;;;;;;17.70;57.10;;;;;;5024939;28;19980;-53
2022/04/17 02:30:06;;;;;;;;;;;17.70;57.10;;;;;;5025911;28;19925;-54
2022/04/17 02:32:31;;;;;;;;;;;17.70;57.10;;;;;;5026265;28;20346;-53
2022/04/17 02:34:56;;;;;;;;;;;17.70;57.10;;;;;;5026829;28;19932;-54
2022/04/17 02:37:22;;;;;;;;;;;17.70;57.10;;;;;;5024126;28;19920;-53
2022/04/17 02:39:48;;;;;;;;;;;17.70;57.10;;;;;;5026212;28;20374;-53
2022/04/17 02:42:13;;;;;;;;;;;17.70;57.70;;;;;;5026552;28;19917;-54
2022/04/17 02:44:38;;;;;;;;;;;17.70;57.10;;;;;;5021232;28;20428;-56
2022/04/17 02:49:48;;;;;;;;;;;17.70;57.00;;;;;;5025455;28;20301;-53
2022/04/17 02:52:14;;;;;;;;;;;17.70;57.00;;;;;;5026967;28;19917;-53
2022/04/17 02:54:40;;;;;;;;;;;17.70;57.00;;;;;;5014633;28;19917;-53
2022/04/17 02:57:05;;;;;;;;;;;17.70;57.10;;;;;;5026627;28;19998;-54
2022/04/17 02:59:30;;;;;;;;;;;17.70;57.10;;;;;;5024819;28;20618;-52
2022/04/17 03:07:24;;;;;;;;;;;17.70;57.00;;;;;;5024959;28;20043;-55
2022/04/17 03:09:49;;;;;;;;;;;17.70;57.00;;;;;;5026199;28;20151;-51
2022/04/17 03:12:15;;;;;;;;;;;17.70;57.00;;;;;;5025711;28;20092;-55
2022/04/17 03:14:40;;;;;;;;;;;17.70;57.00;;;;;;5023912;28;19935;-54
2022/04/17 03:17:06;;;;;;;;;;;17.60;56.90;;;;;;5025864;28;19917;-54
2022/04/17 03:19:31;;;;;;;;;;;17.70;56.90;;;;;;5024246;28;19917;-50
2022/04/17 03:21:57;;;;;;;;;;;17.60;56.90;;;;;;5026048;28;20364;-51
2022/04/17 03:24:22;;;;;;;;;;;17.60;56.90;;;;;;4998472;28;19920;-53
2022/04/17 03:26:48;;;;;;;;;;;17.60;56.90;;;;;;5025183;28;20075;-55
2022/04/17 03:29:14;;;;;;;;;;;17.60;56.90;;;;;;5024875;28;20300;-53
2022/04/17 03:31:39;;;;;;;;;;;17.60;56.90;;;;;;5028048;28;19913;-52
2022/04/17 03:34:08;;;;;;;;;;;17.60;56.90;;;;;;5024605;28;19925;-52
2022/04/17 03:36:39;;;;;;;;;;;17.60;56.90;;;;;;5027580;28;19936;-55
2022/04/17 03:39:05;;;;;;;;;;;17.70;56.90;;;;;;5025594;28;20423;-53
2022/04/17 03:41:31;;;;;;;;;;;17.60;56.80;;;;;;5041882;28;19917;-55
2022/04/17 03:43:57;;;;;;;;;;;17.60;56.90;;;;;;5021128;28;20329;-54
2022/04/17 03:46:22;;;;;;;;;;;17.60;56.90;;;;;;5025650;28;20292;-55
2022/04/17 03:48:48;;;;;;;;;;;17.60;56.80;;;;;;5024268;28;19913;-50
2022/04/17 03:51:13;;;;;;;;;;;17.60;57.50;;;;;;5026412;28;19928;-53
2022/04/17 03:53:39;;;;;;;;;;;17.60;56.80;;;;;;5022523;28;20597;-51
2022/04/17 03:56:04;;;;;;;;;;;17.60;56.80;;;;;;5026502;28;20349;-53
2022/04/17 03:58:30;;;;;;;;;;;17.60;56.80;;;;;;5024001;28;19917;-49
2022/04/17 04:00:55;;;;;;;;;;;17.60;56.70;;;;;;5039987;28;19913;-53
2022/04/17 04:03:21;;;;;;;;;;;17.60;57.10;;;;;;5025899;28;20643;-55
2022/04/17 04:05:47;;;;;;;;;;;17.60;56.70;;;;;;5026886;28;19952;-52
2022/04/17 04:08:12;;;;;;;;;;;17.60;56.70;;;;;;5024992;28;19952;-53
2022/04/17 04:10:38;;;;;;;;;;;17.60;56.70;;;;;;5024905;28;19924;-53
2022/04/17 04:13:04;;;;;;;;;;;17.60;56.70;;;;;;5025766;28;20129;-53
2022/04/17 04:15:29;;;;;;;;;;;17.60;56.70;;;;;;5026116;28;20015;-54
2022/04/17 04:17:55;;;;;;;;;;;17.60;56.70;;;;;;5025340;28;19920;-54
2022/04/17 04:20:20;;;;;;;;;;;17.60;56.70;;;;;;5027430;28;19996;-53
2022/04/17 04:22:46;;;;;;;;;;;17.60;56.70;;;;;;5027038;28;19913;-52
2022/04/17 04:25:11;;;;;;;;;;;17.60;56.70;;;;;;5025818;28;19925;-51
2022/04/17 04:30:21;;;;;;;;;;;17.50;56.70;;;;;;5030540;28;19982;-54
2022/04/17 04:32:53;;;;;;;;;;;17.50;56.70;;;;;;5025766;28;20388;-56
2022/04/17 04:35:18;;;;;;;;;;;17.60;56.70;;;;;;5025408;28;19964;-55
2022/04/17 04:37:44;;;;;;;;;;;17.50;56.60;;;;;;5024679;28;19959;-54
2022/04/17 04:40:10;;;;;;;;;;;17.60;56.60;;;;;;5024365;28;19919;-50
2022/04/17 04:42:36;;;;;;;;;;;17.50;56.60;;;;;;5024792;28;20335;-52
2022/04/17 04:47:46;;;;;;;;;;;17.50;56.50;;;;;;5024184;28;19970;-53
2022/04/17 04:50:11;;;;;;;;;;;17.50;56.60;;;;;;5023039;28;20432;-53
2022/04/17 04:52:37;;;;;;;;;;;17.50;56.60;;;;;;5023272;28;19925;-55
2022/04/17 04:55:03;;;;;;;;;;;17.50;56.60;;;;;;5022691;28;19967;-55
2022/04/17 04:57:28;;;;;;;;;;;17.50;56.60;;;;;;5023585;28;19913;-54
2022/04/17 04:59:54;;;;;;;;;;;17.50;56.50;;;;;;5021225;28;19913;-53
2022/04/17 05:02:19;;;;;;;;;;;17.50;56.50;;;;;;5025535;28;19917;-53
2022/04/17 05:04:45;;;;;;;;;;;17.50;56.50;;;;;;5023626;28;19913;-55
2022/04/17 05:07:10;;;;;;;;;;;17.50;56.50;;;;;;5023392;28;19920;-54
2022/04/17 05:09:36;;;;;;;;;;;17.50;56.60;;;;;;5024096;28;19935;-54
2022/04/17 05:12:01;;;;;;;;;;;17.50;56.50;;;;;;5025167;28;19913;-51
2022/04/17 05:14:29;;;;;;;;;;;17.50;56.50;;;;;;5027536;28;19975;-55
2022/04/17 05:16:54;;;;;;;;;;;17.60;56.50;;;;;;5026905;28;19963;-54
2022/04/17 05:19:20;;;;;;;;;;;17.60;56.50;;;;;;5027090;28;19917;-54
2022/04/17 05:21:47;;;;;;;;;;;17.60;56.50;;;;;;5028503;28;19953;-53
2022/04/17 05:24:15;;;;;;;;;;;17.60;56.50;;;;;;5028394;28;19913;-56
2022/04/17 05:26:41;;;;;;;;;;;17.60;56.50;;;;;;5027321;28;19918;-54
2022/04/17 05:29:06;;;;;;;;;;;17.60;56.50;;;;;;5027696;28;19998;-54
2022/04/17 05:31:32;;;;;;;;;;;17.60;56.50;;;;;;5028011;28;19920;-53
2022/04/17 05:33:58;;;;;;;;;;;17.60;56.50;;;;;;5026374;28;19921;-55
2022/04/17 05:36:23;;;;;;;;;;;17.60;56.60;;;;;;5028086;28;19920;-53
2022/04/17 05:38:49;;;;;;;;;;;17.60;56.50;;;;;;5027827;28;19924;-53
2022/04/17 05:41:14;;;;;;;;;;;17.60;56.40;;;;;;5028861;28;19921;-55
2022/04/17 05:43:39;;;;;;;;;;;17.60;56.40;;;;;;5024170;28;19917;-53
2022/04/17 05:46:05;;;;;;;;;;;17.70;56.40;;;;;;5027638;28;19917;-54
2022/04/17 05:48:30;;;;;;;;;;;17.70;56.40;;;;;;5025748;28;19923;-53
2022/04/17 05:50:56;;;;;;;;;;;17.70;56.40;;;;;;5027564;28;19913;-56
2022/04/17 05:53:21;;;;;;;;;;;17.60;56.40;;;;;;5027426;28;19924;-55
2022/04/17 05:55:47;;;;;;;;;;;17.60;56.40;;;;;;5026975;28;19914;-55
2022/04/17 05:58:12;;;;;;;;;;;17.70;56.50;;;;;;5027131;28;19964;-54
2022/04/17 06:00:42;;;;;;;;;;;17.70;56.40;;;;;;5026703;28;19917;-56
2022/04/17 06:03:07;;;;;;;;;;;17.70;56.40;;;;;;5027589;28;19992;-53
2022/04/17 06:05:33;;;;;;;;;;;17.70;56.50;;;;;;5026855;28;19992;-55
2022/04/17 06:07:58;;;;;;;;;;;17.70;56.50;;;;;;5027145;28;19944;-51
2022/04/17 06:10:24;;;;;;;;;;;17.70;56.50;;;;;;5027405;28;19920;-54
2022/04/17 06:12:49;;;;;;;;;;;17.60;56.60;;;;;;5027553;28;19928;-54
2022/04/17 06:15:15;;;;;;;;;;;17.70;56.90;;;;;;5026841;28;20681;-55
2022/04/17 06:17:41;;;;;;;;;;;17.70;56.60;;;;;;5026896;28;19913;-54
2022/04/17 06:20:07;;;;;;;;;;;17.70;56.70;;;;;;5026411;28;19987;-56
2022/04/17 06:22:33;;;;;;;;;;;17.70;56.90;;;;;;5025188;28;19961;-54
2022/04/17 06:24:59;;;;;;;;;;;17.60;56.80;;;;;;5025920;28;19940;-51
2022/04/17 06:27:24;;;;;;;;;;;17.70;57.00;;;;;;5025502;28;19975;-54
2022/04/17 06:29:50;;;;;;;;;;;17.70;57.10;;;;;;5025840;28;21423;-55
2022/04/17 06:32:15;;;;;;;;;;;17.70;57.20;;;;;;5026987;28;19921;-55
2022/04/17 06:34:41;;;;;;;;;;;17.70;57.30;;;;;;5026235;28;19921;-54
2022/04/17 06:37:06;;;;;;;;;;;17.70;57.20;;;;;;5026820;28;20145;-55
2022/04/17 06:39:32;;;;;;;;;;;17.70;57.30;;;;;;5025683;28;19913;-53
2022/04/17 06:41:57;;;;;;;;;;;17.70;57.20;;;;;;5025656;28;19917;-56
2022/04/17 06:44:22;;;;;;;;;;;17.70;57.20;;;;;;5026965;28;19917;-56
2022/04/17 06:46:48;;;;;;;;;;;17.70;57.20;;;;;;5026838;28;19913;-55
2022/04/17 06:49:14;;;;;;;;;;;17.60;57.20;;;;;;5025523;28;19917;-55
2022/04/17 06:51:40;;;;;;;;;;;17.70;57.10;;;;;;5026436;28;19913;-53
2022/04/17 06:54:06;;;;;;;;;;;17.70;57.30;;;;;;5026471;28;19917;-54
2022/04/17 06:56:31;;;;;;;;;;;17.60;57.00;;;;;;5024900;28;19917;-54
2022/04/17 06:58:57;;;;;;;;;;;17.70;57.20;;;;;;5024678;28;20330;-53
2022/04/17 07:01:23;;;;;;;;;;;17.60;57.10;;;;;;5026615;28;19917;-56
2022/04/17 07:03:48;;;;;;;;;;;17.60;57.10;;;;;;5025697;28;19921;-55
2022/04/17 07:06:14;;;;;;;;;;;17.60;57.00;;;;;;5025894;28;19914;-56
2022/04/17 07:08:39;;;;;;;;;;;17.60;57.00;;;;;;5025680;28;19917;-55
2022/04/17 07:11:04;;;;;;;;;;;17.60;57.00;;;;;;5024680;28;19913;-53
2022/04/17 07:13:30;;;;;;;;;;;17.60;56.90;;;;;;5026627;28;19991;-53
2022/04/17 07:15:56;;;;;;;;;;;17.60;56.90;;;;;;5025756;28;19920;-55
2022/04/17 07:18:21;;;;;;;;;;;17.60;57.00;;;;;;5025346;28;20511;-56
2022/04/17 07:20:47;;;;;;;;;;;17.60;57.10;;;;;;5023629;28;19940;-53
2022/04/17 07:23:12;;;;;;;;;;;17.60;57.30;;;;;;5025449;28;19913;-56
2022/04/17 07:25:38;;;;;;;;;;;17.60;57.40;;;;;;5024640;28;19940;-54
2022/04/17 07:28:03;;;;;;;;;;;17.90;59.20;;;;;;5025130;28;19920;-56
2022/04/17 07:30:30;;;;;;;;;;;18.30;58.50;;;;;;5023348;28;19913;-53
2022/04/17 07:32:56;;;;;;;;;;;18.50;58.30;;;;;;5026305;28;19917;-55
2022/04/17 07:35:22;;;;;;;;;;;18.60;58.00;;;;;;5013040;28;19952;-54
2022/04/17 07:37:48;;;;;;;;;;;18.60;57.60;;;;;;5025580;28;19913;-55
2022/04/17 07:40:15;;;;;;;;;;;18.60;57.40;;;;;;5022936;28;19992;-53
2022/04/17 07:42:41;;;;;;;;;;;18.60;57.10;;;;;;5022180;28;20620;-54
2022/04/17 07:45:07;;;;;;;;;;;18.30;57.80;;;;;;5025146;28;19917;-53
2022/04/17 07:47:32;;;;;;;;;;;18.10;57.90;;;;;;5025194;28;19914;-54
2022/04/17 07:49:59;;;;;;;;;;;18.00;58.10;;;;;;5024451;28;19913;-53
2022/04/17 07:52:24;;;;;;;;;;;17.90;58.20;;;;;;5024724;28;19917;-54
2022/04/17 07:54:50;;;;;;;;;;;17.80;58.30;;;;;;5024980;28;20600;-55
2022/04/17 07:57:15;;;;;;;;;;;17.80;58.20;;;;;;5024469;28;19920;-53
2022/04/17 07:59:41;;;;;;;;;;;17.80;58.10;;;;;;5023849;28;19913;-54
2022/04/17 08:02:22;;;;;;;;;;;17.70;58.20;;;;;;5025804;28;19987;-52
2022/04/17 08:04:51;;;;;;;;;;;17.70;58.20;;;;;;5024926;28;19936;-53
2022/04/17 08:07:19;;;;;;;;;;;17.70;58.10;;;;;;5023596;28;20009;-54
2022/04/17 08:09:45;;;;;;;;;;;17.70;58.10;;;;;;5025123;28;19919;-56
2022/04/17 08:12:11;;;;;;;;;;;17.70;58.10;;;;;;5025154;28;19921;-54
2022/04/17 08:14:36;;;;;;;;;;;17.70;58.00;;;;;;5024967;28;19918;-52
2022/04/17 08:17:01;;;;;;;;;;;17.60;58.00;;;;;;5027961;28;19913;-51
2022/04/17 08:19:29;;;;;;;;;;;17.70;58.00;;;;;;5028006;28;20421;-53
2022/04/17 08:21:55;;;;;;;;;;;17.70;57.90;;;;;;5027992;28;19917;-53
2022/04/17 08:24:20;;;;;;;;;;;17.70;57.90;;;;;;5026980;28;19925;-52
2022/04/17 08:26:46;;;;;;;;;;;17.60;57.80;;;;;;5026139;28;20005;-55
2022/04/17 08:29:11;;;;;;;;;;;17.70;57.90;;;;;;5024719;28;19913;-53
2022/04/17 08:31:37;;;;;;;;;;;17.70;58.00;;;;;;5025128;28;20330;-57
2022/04/17 08:34:03;;;;;;;;;;;17.70;58.10;;;;;;5024140;28;19929;-54
2022/04/17 08:36:28;;;;;;;;;;;17.70;58.10;;;;;;5023295;28;19924;-50
2022/04/17 08:38:53;;;;;;;;;;;17.70;58.30;;;;;;5023572;28;19960;-54
2022/04/17 08:41:19;;;;;;;;;;;17.70;59.10;;;;;;5023928;28;19917;-54
2022/04/17 08:43:44;;;;;;;;;;;17.70;58.50;;;;;;5023492;28;19976;-55
2022/04/17 08:46:10;;;;;;;;;;;17.70;58.70;;;;;;5021056;28;20321;-55
2022/04/17 08:48:36;;;;;;;;;;;17.70;58.70;;;;;;5022488;28;19913;-54
2022/04/17 08:51:02;;;;;;;;;;;17.70;58.80;;;;;;5015294;28;20337;-55
2022/04/17 08:53:27;;;;;;;;;;;17.70;58.70;;;;;;5023361;28;19917;-55
2022/04/17 08:55:53;;;;;;;;;;;17.70;58.70;;;;;;5023091;28;19913;-54
2022/04/17 08:58:18;;;;;;;;;;;17.70;58.80;;;;;;5022675;28;19913;-54
2022/04/17 09:00:43;;;;;;;;;;;17.70;58.90;;;;;;5023137;28;19999;-54
2022/04/17 09:03:09;;;;;;;;;;;17.70;58.90;;;;;;5024456;28;19944;-54
2022/04/17 09:05:35;;;;;;;;;;;17.70;59.00;;;;;;5025111;28;19913;-53
2022/04/17 09:08:10;;;;;;;;;;;17.70;58.90;;;;;;5024690;28;19996;-54
2022/04/17 09:10:36;;;;;;;;;;;17.70;59.00;;;;;;5028559;28;19917;-53
2022/04/17 09:13:02;;;;;;;;;;;17.60;59.10;;;;;;5024621;28;19918;-52
2022/04/17 09:15:31;;;;;;;;;;;17.70;59.30;;;;;;5024433;28;20345;-55
2022/04/17 09:17:56;;;;;;;;;;;17.70;59.40;;;;;;5023695;28;19996;-55
2022/04/17 09:20:22;;;;;;;;;;;17.70;59.50;;;;;;5023818;28;20468;-54
2022/04/17 09:22:49;;;;;;;;;;;17.70;59.30;;;;;;5023488;28;19916;-55
2022/04/17 09:25:14;;;;;;;;;;;17.60;59.20;;;;;;5024735;28;19964;-55
2022/04/17 09:27:42;;;;;;;;;;;17.70;59.20;;;;;;5024616;28;19952;-56
2022/04/17 09:30:28;;;;;;;;;;;17.70;59.10;;;;;;5022663;28;19917;-55
2022/04/17 09:32:54;;;;;;;;;;;17.70;59.10;;;;;;5015588;28;19972;-56
2022/04/17 09:35:23;;;;;;;;;;;17.70;59.50;;;;;;5024092;28;19921;-53
2022/04/17 09:37:49;;;;;;;;;;;17.70;59.60;;;;;;5024124;28;19928;-55
2022/04/17 09:40:15;;;;;;;;;;;17.60;59.60;;;;;;5023189;28;19913;-52
2022/04/17 09:42:41;;;;;;;;;;;17.70;60.10;;;;;;5014809;28;20067;-55
2022/04/17 09:45:06;;;;;;;;;;;17.60;60.40;;;;;;5024255;28;20004;-56
2022/04/17 09:47:32;;;;;;;;;;;17.70;60.40;;;;;;5037180;28;20439;-55
2022/04/17 09:50:01;;;;;;;;;;;17.70;60.90;;;;;;5041269;28;20362;-55
2022/04/17 09:52:27;;;;;;;;;;;17.70;60.60;;;;;;5024322;28;19913;-56
2022/04/17 09:54:53;;;;;;;;;;;17.80;63.70;;;;;;5013258;28;19913;-54
2022/04/17 09:57:19;;;;;;;;;;;17.80;61.80;;;;;;5024610;28;19913;-55
2022/04/17 09:59:45;;;;;;;;;;;17.80;61.40;;;;;;5025282;28;19920;-54
2022/04/17 10:02:12;;;;;;;;;;;17.70;61.30;;;;;;5027840;28;19916;-55
2022/04/17 10:04:38;;;;;;;;;;;17.70;61.20;;;;;;5023049;28;20034;-55
2022/04/17 10:07:04;;;;;;;;;;;18.00;67.00;;;;;;5028265;28;20412;-53
2022/04/17 10:09:30;;;;;;;;;;;18.00;64.00;;;;;;5026550;28;19913;-52
2022/04/17 10:11:59;;;;;;;;;;;18.00;63.40;;;;;;5027641;28;19920;-56
2022/04/17 10:14:26;;;;;;;;;;;17.90;63.20;;;;;;5027361;28;20333;-54
2022/04/17 10:16:52;;;;;;;;;;;17.90;63.30;;;;;;5027501;28;20573;-56
2022/04/17 10:19:21;;;;;;;;;;;17.90;63.30;;;;;;5042322;28;19924;-56
2022/04/17 10:21:47;;;;;;;;;;;17.90;63.30;;;;;;5029703;28;19975;-56
2022/04/17 10:24:13;;;;;;;;;;;17.90;63.10;;;;;;5027481;28;19913;-56
2022/04/17 10:26:41;;;;;;;;;;;17.90;62.80;;;;;;5027397;28;20325;-54
2022/04/17 10:29:07;;;;;;;;;;;17.90;62.60;;;;;;5026768;28;20043;-56
2022/04/17 10:31:52;;;;;;;;;;;17.90;62.30;;;;;;5027388;28;19913;-56
2022/04/17 10:34:18;;;;;;;;;;;18.00;62.90;;;;;;5026298;22;20470;-67
2022/04/17 10:37:02;;;;;;;;;;;18.10;62.40;;;;;;5046636;28;19913;-69
2022/04/17 10:39:28;;;;;;;;;;;18.00;61.90;;;;;;5045629;28;19913;-70
2022/04/17 10:41:53;;;;;;;;;;;18.00;61.90;;;;;;5047041;28;19920;-71
2022/04/17 10:44:19;;;;;;;;;;;17.90;61.90;;;;;;5032071;28;19921;-68
2022/04/17 10:46:48;;;;;;;;;;;17.90;61.90;;;;;;5026534;28;20365;-67
2022/04/17 10:49:15;;;;;;;;;;;17.90;61.60;;;;;;5024772;28;20537;-67
2022/04/17 10:51:46;;;;;;;;;;;17.90;61.50;;;;;;5026762;28;19917;-70
2022/04/17 10:54:14;;;;;;;;;;;17.90;61.30;;;;;;5041352;28;19923;-69
2022/04/17 10:56:57;;;;;;;;;;;17.90;61.00;;;;;;5035588;28;19998;-69
2022/04/17 10:59:23;;;;;;;;;;;17.90;61.00;;;;;;5026110;28;19940;-70
2022/04/17 11:01:48;;;;;;;;;;;17.90;60.50;;;;;;5025060;28;19928;-69
2022/04/17 11:04:15;;;;;;;;;;;17.90;60.30;;;;;;5026250;28;19917;-70
2022/04/17 11:06:40;;;;;;;;;;;17.90;60.10;;;;;;5037951;28;19913;-70
2022/04/17 11:09:15;;;;;;;;;;;17.90;59.60;;;;;;5023787;28;19921;-70
2022/04/17 11:11:44;;;;;;;;;;;17.90;59.50;;;;;;5025290;28;20514;-69
2022/04/17 11:14:14;;;;;;;;;;;17.90;59.50;;;;;;5026347;28;19917;-69
2022/04/17 11:16:52;;;;;;;;;;;17.80;59.60;;;;;;5026735;28;20392;-70
2022/04/17 11:19:21;;;;;;;;;;;17.80;59.70;;;;;;5025866;28;20110;-70
2022/04/17 11:21:51;;;;;;;;;;;17.80;59.80;;;;;;5027023;28;19921;-68
2022/04/17 11:24:16;;;;;;;;;;;17.80;59.90;;;;;;5025111;28;19917;-69
2022/04/17 11:26:52;;;;;;;;;;;17.80;59.90;;;;;;5026217;28;19920;-70
2022/04/17 11:29:37;;;;;;;;;;;17.90;60.00;;;;;;5025357;28;19975;-67
2022/04/17 11:32:03;;;;;;;;;;;17.80;59.90;;;;;;5026433;28;19913;-67
2022/04/17 11:34:53;;;;;;;;;;;17.80;60.00;;;;;;5028810;28;19925;-68
2022/04/17 11:37:19;;;;;;;;;;;17.90;59.90;;;;;;5026373;28;19914;-69
2022/04/17 11:39:44;;;;;;;;;;;17.90;60.00;;;;;;5026124;28;19919;-70
2022/04/17 11:42:10;;;;;;;;;;;17.80;60.00;;;;;;5025171;28;19919;-71
2022/04/17 11:44:35;;;;;;;;;;;17.80;60.20;;;;;;5026209;28;19948;-70
2022/04/17 11:47:01;;;;;;;;;;;17.80;60.20;;;;;;5042038;28;19913;-69
2022/04/17 11:49:32;;;;;;;;;;;17.80;60.30;;;;;;5026502;28;19914;-68
2022/04/17 11:52:09;;;;;;;;;;;17.80;60.40;;;;;;5023911;28;25797;-69
2022/04/17 11:54:35;;;;;;;;;;;17.80;60.40;;;;;;5022946;28;19974;-67
2022/04/17 11:57:00;;;;;;;;;;;17.80;60.10;;;;;;5023762;28;19913;-68
2022/04/17 11:59:26;;;;;;;;;;;17.80;60.00;;;;;;5019564;28;19959;-68
2022/04/17 12:02:07;;;;;;;;;;;17.70;60.00;;;;;;5023343;28;20011;-68
2022/04/17 12:04:33;;;;;;;;;;;17.80;59.90;;;;;;5025072;28;19944;-68
2022/04/17 12:06:58;;;;;;;;;;;17.80;59.70;;;;;;5024654;28;19940;-69
2022/04/17 12:09:24;;;;;;;;;;;17.80;60.10;;;;;;5024380;28;19921;-69
2022/04/17 12:11:50;;;;;;;;;;;17.80;59.20;;;;;;5031697;28;19921;-69
2022/04/17 12:14:28;;;;;;;;;;;17.80;59.10;;;;;;5034337;28;20363;-69
2022/04/17 12:16:54;;;;;;;;;;;17.80;59.00;;;;;;5030984;28;20008;-69
2022/04/17 12:19:19;;;;;;;;;;;17.80;58.90;;;;;;5033723;28;21675;-69
2022/04/17 12:21:45;;;;;;;;;;;17.80;58.80;;;;;;5032778;28;19967;-70
2022/04/17 12:24:10;;;;;;;;;;;17.80;58.80;;;;;;5025089;28;20541;-68
2022/04/17 12:26:35;;;;;;;;;;;17.80;58.60;;;;;;5024851;28;20164;-69
2022/04/17 12:29:01;;;;;;;;;;;17.80;58.50;;;;;;5024155;28;20085;-68
2022/04/17 12:31:26;;;;;;;;;;;17.80;58.50;;;;;;5026413;28;19921;-69
2022/04/17 12:34:04;;;;;;;;;;;17.80;58.30;;;;;;5024262;28;20526;-69
2022/04/17 12:36:30;;;;;;;;;;;17.80;58.30;;;;;;5023811;28;20325;-70
2022/04/17 12:38:55;;;;;;;;;;;17.80;58.20;;;;;;5024306;28;19917;-68
2022/04/17 12:41:28;;;;;;;;;;;17.80;58.10;;;;;;5025168;28;19917;-67
2022/04/17 12:43:53;;;;;;;;;;;17.80;58.20;;;;;;5019488;28;19917;-69
2022/04/17 12:46:22;;;;;;;;;;;17.80;58.10;;;;;;5024581;28;20594;-67
2022/04/17 12:48:49;;;;;;;;;;;17.80;58.00;;;;;;5023065;28;19971;-70
2022/04/17 12:51:15;;;;;;;;;;;17.80;57.90;;;;;;5022615;28;19924;-69
2022/04/17 12:53:42;;;;;;;;;;;17.80;57.90;;;;;;5024422;28;19917;-67
2022/04/17 12:56:09;;;;;;;;;;;17.80;57.90;;;;;;5025228;28;20391;-70
2022/04/17 12:58:47;;;;;;;;;;;17.80;57.90;;;;;;5024136;28;19913;-69
2022/04/17 13:01:17;;;;;;;;;;;17.80;57.80;;;;;;5025001;28;20002;-69
2022/04/17 13:03:43;;;;;;;;;;;17.80;57.80;;;;;;5025005;28;19917;-70
2022/04/17 13:06:09;;;;;;;;;;;17.80;57.70;;;;;;5039772;28;20442;-69
2022/04/17 13:08:35;;;;;;;;;;;17.80;57.60;;;;;;5023282;28;19917;-66
2022/04/17 13:11:00;;;;;;;;;;;17.80;57.70;;;;;;5024399;28;19979;-69
2022/04/17 13:13:35;;;;;;;;;;;17.80;57.60;;;;;;5023968;28;19959;-69
2022/04/17 13:16:01;;;;;;;;;;;17.80;57.60;;;;;;5024984;28;19920;-70
2022/04/17 13:18:27;;;;;;;;;;;17.80;57.60;;;;;;5022746;28;20475;-67
2022/04/17 13:20:52;;;;;;;;;;;17.80;57.60;;;;;;5024839;28;19913;-67
2022/04/17 13:23:18;;;;;;;;;;;17.80;57.70;;;;;;5023958;28;20364;-70
2022/04/17 13:25:43;;;;;;;;;;;17.80;57.60;;;;;;5025679;28;19913;-65
2022/04/17 13:28:09;;;;;;;;;;;17.80;57.70;;;;;;5014753;28;20450;-67
2022/04/17 13:30:34;;;;;;;;;;;17.80;57.60;;;;;;5023309;28;19919;-69
2022/04/17 13:33:00;;;;;;;;;;;17.80;57.60;;;;;;5024249;28;19972;-67
2022/04/17 13:35:25;;;;;;;;;;;17.80;57.30;;;;;;5028402;28;20287;-70
2022/04/17 13:40:36;;;;;;;;;;;17.80;57.40;;;;;;5027253;28;19923;-70
2022/04/17 13:43:01;;;;;;;;;;;17.80;57.10;;;;;;5028086;28;20271;-70
2022/04/17 13:45:27;;;;;;;;;;;17.80;57.00;;;;;;5028732;28;19913;-70
2022/04/17 13:47:52;;;;;;;;;;;17.80;56.90;;;;;;5027834;28;20566;-70
2022/04/17 13:50:18;;;;;;;;;;;17.70;57.00;;;;;;5027164;28;19920;-70
2022/04/17 13:52:44;;;;;;;;;;;17.80;57.10;;;;;;5019804;28;20520;-69
2022/04/17 13:55:09;;;;;;;;;;;17.80;56.90;;;;;;5033601;28;20379;-69
2022/04/17 13:57:35;;;;;;;;;;;17.80;57.00;;;;;;5027144;28;19917;-68
2022/04/17 14:00:00;;;;;;;;;;;17.80;57.10;;;;;;5025484;28;20345;-68
2022/04/17 14:02:26;;;;;;;;;;;17.70;56.90;;;;;;5027004;28;19924;-69
2022/04/17 14:04:51;;;;;;;;;;;17.80;56.90;;;;;;5022631;28;19913;-68
2022/04/17 14:07:16;;;;;;;;;;;17.80;56.90;;;;;;5027783;28;20104;-69
2022/04/17 14:09:42;;;;;;;;;;;17.80;56.90;;;;;;5024780;28;19953;-69
2022/04/17 14:12:09;;;;;;;;;;;17.80;56.80;;;;;;5027422;28;19947;-70
2022/04/17 14:14:35;;;;;;;;;;;17.80;56.80;;;;;;5026914;28;19917;-68
2022/04/17 14:17:00;;;;;;;;;;;17.80;56.80;;;;;;5024823;28;19917;-68
2022/04/17 14:19:26;;;;;;;;;;;17.80;56.90;;;;;;5027014;28;20618;-68
2022/04/17 14:21:51;;;;;;;;;;;17.80;56.80;;;;;;5027504;28;19918;-68
2022/04/17 14:24:17;;;;;;;;;;;17.80;56.80;;;;;;5018768;28;19949;-69
2022/04/17 14:26:42;;;;;;;;;;;17.80;56.90;;;;;;5028313;28;19917;-69
2022/04/17 14:29:07;;;;;;;;;;;17.90;56.90;;;;;;5026994;28;20292;-68
2022/04/17 14:31:33;;;;;;;;;;;17.80;56.80;;;;;;5026452;28;19967;-69